sensor_id;sensor_type;location;lat;lon;timestamp;P1;durP1;ratioP1;P2;durP2;ratioP2
17618;SDS011;8928;51.678;6.074;2023-02-08T00:02:02;34.70;;;15.67;;
17618;SDS011;8928;51.678;6.074;2023-02-08T00:04:49;36.73;;;15.87;;
17618;SDS011;8928;51.678;6.074;2023-02-08T00:07:36;36.37;;;15.00;;
17618;SDS011;8928;51.678;6.074;2023-02-08T00:10:25;34.10;;;15.33;;
17618;SDS011;8928;51.678;6.074;2023-02-08T00:13:12;35.47;;;15.03;;
17618;SDS011;8928;51.678;6.074;2023-02-08T00:15:59;35.53;;;15.60;;
17618;SDS011;8928;51.678;6.074;2023-02-08T00:18:46;34.37;;;15.07;;
17618;SDS011;8928;51.678;6.074;2023-02-08T00:21:33;35.67;;;15.67;;
17618;SDS011;8928;51.678;6.074;2023-02-08T00:24:20;34.83;;;15.00;;
17618;SDS011;8928;51.678;6.074;2023-02-08T00:27:09;38.20;;;15.50;;
17618;SDS011;8928;51.678;6.074;2023-02-08T00:29:56;37.13;;;14.63;;
17618;SDS011;8928;51.678;6.074;2023-02-08T00:32:43;36.33;;;14.57;;
17618;SDS011;8928;51.678;6.074;2023-02-08T00:35:30;34.27;;;14.23;;
17618;SDS011;8928;51.678;6.074;2023-02-08T00:38:17;31.43;;;14.40;;
17618;SDS011;8928;51.678;6.074;2023-02-08T00:41:06;34.30;;;15.00;;
17618;SDS011;8928;51.678;6.074;2023-02-08T00:43:54;34.93;;;14.70;;
17618;SDS011;8928;51.678;6.074;2023-02-08T00:46:41;33.07;;;14.27;;
17618;SDS011;8928;51.678;6.074;2023-02-08T00:49:28;33.67;;;14.47;;
17618;SDS011;8928;51.678;6.074;2023-02-08T00:52:15;33.90;;;14.70;;
17618;SDS011;8928;51.678;6.074;2023-02-08T00:55:02;33.80;;;15.17;;
17618;SDS011;8928;51.678;6.074;2023-02-08T00:57:49;36.60;;;15.03;;
17618;SDS011;8928;51.678;6.074;2023-02-08T01:00:38;32.83;;;14.17;;
17618;SDS011;8928;51.678;6.074;2023-02-08T01:03:25;37.23;;;14.67;;
17618;SDS011;8928;51.678;6.074;2023-02-08T01:06:13;36.83;;;14.97;;
17618;SDS011;8928;51.678;6.074;2023-02-08T01:09:01;34.40;;;14.83;;
17618;SDS011;8928;51.678;6.074;2023-02-08T01:11:49;34.90;;;14.40;;
17618;SDS011;8928;51.678;6.074;2023-02-08T01:14:36;32.07;;;14.33;;
17618;SDS011;8928;51.678;6.074;2023-02-08T01:17:24;35.33;;;15.20;;
17618;SDS011;8928;51.678;6.074;2023-02-08T01:20:11;33.17;;;15.07;;
17618;SDS011;8928;51.678;6.074;2023-02-08T01:22:58;32.63;;;14.43;;
17618;SDS011;8928;51.678;6.074;2023-02-08T01:25:45;32.97;;;15.20;;
17618;SDS011;8928;51.678;6.074;2023-02-08T01:28:32;36.53;;;15.40;;
17618;SDS011;8928;51.678;6.074;2023-02-08T01:31:20;35.23;;;15.80;;
17618;SDS011;8928;51.678;6.074;2023-02-08T01:34:10;34.33;;;15.33;;
17618;SDS011;8928;51.678;6.074;2023-02-08T01:36:57;39.37;;;14.93;;
17618;SDS011;8928;51.678;6.074;2023-02-08T01:39:44;36.27;;;14.67;;
17618;SDS011;8928;51.678;6.074;2023-02-08T01:42:31;32.40;;;14.83;;
17618;SDS011;8928;51.678;6.074;2023-02-08T01:45:25;33.50;;;14.70;;
17618;SDS011;8928;51.678;6.074;2023-02-08T01:48:15;37.83;;;15.13;;
17618;SDS011;8928;51.678;6.074;2023-02-08T01:51:07;37.20;;;14.57;;
17618;SDS011;8928;51.678;6.074;2023-02-08T01:53:56;36.47;;;14.87;;
17618;SDS011;8928;51.678;6.074;2023-02-08T01:56:45;35.07;;;14.73;;
17618;SDS011;8928;51.678;6.074;2023-02-08T01:59:36;33.40;;;14.83;;
17618;SDS011;8928;51.678;6.074;2023-02-08T02:02:26;34.43;;;14.67;;
17618;SDS011;8928;51.678;6.074;2023-02-08T02:05:13;37.13;;;15.70;;
17618;SDS011;8928;51.678;6.074;2023-02-08T02:08:02;34.80;;;14.63;;
17618;SDS011;8928;51.678;6.074;2023-02-08T02:10:51;35.63;;;14.90;;
17618;SDS011;8928;51.678;6.074;2023-02-08T02:13:38;35.43;;;15.03;;
17618;SDS011;8928;51.678;6.074;2023-02-08T02:16:26;34.67;;;14.33;;
17618;SDS011;8928;51.678;6.074;2023-02-08T02:19:14;36.07;;;15.27;;
17618;SDS011;8928;51.678;6.074;2023-02-08T02:22:12;35.97;;;14.70;;
17618;SDS011;8928;51.678;6.074;2023-02-08T02:25:23;35.93;;;14.60;;
17618;SDS011;8928;51.678;6.074;2023-02-08T02:28:35;38.97;;;14.73;;
17618;SDS011;8928;51.678;6.074;2023-02-08T02:31:49;34.03;;;14.17;;
17618;SDS011;8928;51.678;6.074;2023-02-08T02:34:48;30.30;;;13.80;;
17618;SDS011;8928;51.678;6.074;2023-02-08T02:37:44;34.03;;;14.73;;
17618;SDS011;8928;51.678;6.074;2023-02-08T02:40:42;35.17;;;14.47;;
17618;SDS011;8928;51.678;6.074;2023-02-08T02:43:46;33.33;;;13.47;;
17618;SDS011;8928;51.678;6.074;2023-02-08T02:46:40;33.93;;;14.63;;
17618;SDS011;8928;51.678;6.074;2023-02-08T02:49:35;33.80;;;14.33;;
17618;SDS011;8928;51.678;6.074;2023-02-08T02:52:30;36.43;;;14.13;;
17618;SDS011;8928;51.678;6.074;2023-02-08T02:55:24;33.27;;;13.83;;
17618;SDS011;8928;51.678;6.074;2023-02-08T02:58:14;34.07;;;14.47;;
17618;SDS011;8928;51.678;6.074;2023-02-08T03:01:03;35.93;;;14.23;;
17618;SDS011;8928;51.678;6.074;2023-02-08T03:03:50;33.10;;;13.43;;
17618;SDS011;8928;51.678;6.074;2023-02-08T03:06:40;32.20;;;13.83;;
17618;SDS011;8928;51.678;6.074;2023-02-08T03:09:42;34.43;;;14.27;;
17618;SDS011;8928;51.678;6.074;2023-02-08T03:12:38;33.37;;;14.07;;
17618;SDS011;8928;51.678;6.074;2023-02-08T03:15:37;34.23;;;14.00;;
17618;SDS011;8928;51.678;6.074;2023-02-08T03:18:32;32.73;;;14.40;;
17618;SDS011;8928;51.678;6.074;2023-02-08T03:21:25;31.70;;;14.13;;
17618;SDS011;8928;51.678;6.074;2023-02-08T03:24:24;32.63;;;13.60;;
17618;SDS011;8928;51.678;6.074;2023-02-08T03:27:17;33.80;;;13.83;;
17618;SDS011;8928;51.678;6.074;2023-02-08T03:30:14;33.93;;;13.33;;
17618;SDS011;8928;51.678;6.074;2023-02-08T03:33:05;30.43;;;12.50;;
17618;SDS011;8928;51.678;6.074;2023-02-08T03:35:58;31.83;;;13.37;;
17618;SDS011;8928;51.678;6.074;2023-02-08T03:41:30;34.07;;;13.37;;
17618;SDS011;8928;51.678;6.074;2023-02-08T03:44:19;30.27;;;12.80;;
17618;SDS011;8928;51.678;6.074;2023-02-08T03:47:11;29.97;;;12.93;;
17618;SDS011;8928;51.678;6.074;2023-02-08T03:50:03;31.73;;;13.43;;
17618;SDS011;8928;51.678;6.074;2023-02-08T03:52:53;35.27;;;13.87;;
17618;SDS011;8928;51.678;6.074;2023-02-08T03:55:41;33.30;;;13.53;;
17618;SDS011;8928;51.678;6.074;2023-02-08T03:58:37;33.47;;;13.67;;
17618;SDS011;8928;51.678;6.074;2023-02-08T04:01:28;31.13;;;13.20;;
17618;SDS011;8928;51.678;6.074;2023-02-08T04:04:21;30.50;;;12.90;;
17618;SDS011;8928;51.678;6.074;2023-02-08T04:07:09;29.03;;;12.23;;
17618;SDS011;8928;51.678;6.074;2023-02-08T04:09:56;29.83;;;12.30;;
17618;SDS011;8928;51.678;6.074;2023-02-08T04:12:43;29.70;;;12.67;;
17618;SDS011;8928;51.678;6.074;2023-02-08T04:15:33;28.60;;;12.13;;
17618;SDS011;8928;51.678;6.074;2023-02-08T04:18:20;29.30;;;12.13;;
17618;SDS011;8928;51.678;6.074;2023-02-08T04:21:08;31.23;;;12.60;;
17618;SDS011;8928;51.678;6.074;2023-02-08T04:23:55;30.30;;;12.10;;
17618;SDS011;8928;51.678;6.074;2023-02-08T04:26:42;27.87;;;11.83;;
17618;SDS011;8928;51.678;6.074;2023-02-08T04:29:29;31.17;;;11.87;;
17618;SDS011;8928;51.678;6.074;2023-02-08T04:32:17;30.80;;;12.47;;
17618;SDS011;8928;51.678;6.074;2023-02-08T04:35:04;27.17;;;11.90;;
17618;SDS011;8928;51.678;6.074;2023-02-08T04:37:51;28.10;;;11.83;;
17618;SDS011;8928;51.678;6.074;2023-02-08T04:40:38;31.73;;;11.90;;
17618;SDS011;8928;51.678;6.074;2023-02-08T04:43:25;34.97;;;12.10;;
17618;SDS011;8928;51.678;6.074;2023-02-08T04:46:12;30.60;;;12.50;;
17618;SDS011;8928;51.678;6.074;2023-02-08T04:49:01;29.33;;;12.93;;
17618;SDS011;8928;51.678;6.074;2023-02-08T04:51:48;29.50;;;13.27;;
17618;SDS011;8928;51.678;6.074;2023-02-08T04:54:35;27.93;;;12.50;;
17618;SDS011;8928;51.678;6.074;2023-02-08T04:57:22;30.40;;;12.63;;
17618;SDS011;8928;51.678;6.074;2023-02-08T05:00:09;27.60;;;12.33;;
17618;SDS011;8928;51.678;6.074;2023-02-08T05:02:58;28.73;;;11.90;;
17618;SDS011;8928;51.678;6.074;2023-02-08T05:05:54;29.30;;;12.27;;
17618;SDS011;8928;51.678;6.074;2023-02-08T05:08:42;31.57;;;11.90;;
17618;SDS011;8928;51.678;6.074;2023-02-08T05:11:29;28.37;;;12.10;;
17618;SDS011;8928;51.678;6.074;2023-02-08T05:14:16;32.33;;;12.37;;
17618;SDS011;8928;51.678;6.074;2023-02-08T05:17:03;29.33;;;12.53;;
17618;SDS011;8928;51.678;6.074;2023-02-08T05:19:50;32.73;;;12.83;;
17618;SDS011;8928;51.678;6.074;2023-02-08T05:22:38;28.87;;;12.10;;
17618;SDS011;8928;51.678;6.074;2023-02-08T05:25:26;28.27;;;12.10;;
17618;SDS011;8928;51.678;6.074;2023-02-08T05:28:13;30.37;;;12.70;;
17618;SDS011;8928;51.678;6.074;2023-02-08T05:31:06;25.43;;;11.83;;
17618;SDS011;8928;51.678;6.074;2023-02-08T05:33:55;30.20;;;11.90;;
17618;SDS011;8928;51.678;6.074;2023-02-08T05:36:42;31.50;;;11.87;;
17618;SDS011;8928;51.678;6.074;2023-02-08T05:39:30;26.80;;;11.23;;
17618;SDS011;8928;51.678;6.074;2023-02-08T05:42:17;30.17;;;11.97;;
17618;SDS011;8928;51.678;6.074;2023-02-08T05:45:04;28.23;;;11.40;;
17618;SDS011;8928;51.678;6.074;2023-02-08T05:47:52;25.97;;;11.07;;
17618;SDS011;8928;51.678;6.074;2023-02-08T05:50:39;27.90;;;11.77;;
17618;SDS011;8928;51.678;6.074;2023-02-08T05:53:26;31.87;;;11.80;;
17618;SDS011;8928;51.678;6.074;2023-02-08T05:56:14;27.67;;;11.87;;
17618;SDS011;8928;51.678;6.074;2023-02-08T05:59:01;28.47;;;11.70;;
17618;SDS011;8928;51.678;6.074;2023-02-08T06:01:49;30.23;;;12.20;;
17618;SDS011;8928;51.678;6.074;2023-02-08T06:04:36;30.10;;;12.57;;
17618;SDS011;8928;51.678;6.074;2023-02-08T06:07:23;29.57;;;11.93;;
17618;SDS011;8928;51.678;6.074;2023-02-08T06:10:10;27.90;;;11.33;;
17618;SDS011;8928;51.678;6.074;2023-02-08T06:12:58;36.60;;;12.43;;
17618;SDS011;8928;51.678;6.074;2023-02-08T06:15:45;29.40;;;12.53;;
17618;SDS011;8928;51.678;6.074;2023-02-08T06:18:32;28.87;;;12.93;;
17618;SDS011;8928;51.678;6.074;2023-02-08T06:21:19;31.77;;;13.37;;
17618;SDS011;8928;51.678;6.074;2023-02-08T06:24:07;36.67;;;14.60;;
17618;SDS011;8928;51.678;6.074;2023-02-08T06:26:55;39.57;;;15.07;;
17618;SDS011;8928;51.678;6.074;2023-02-08T06:29:43;34.37;;;14.27;;
17618;SDS011;8928;51.678;6.074;2023-02-08T06:32:30;35.63;;;14.37;;
17618;SDS011;8928;51.678;6.074;2023-02-08T06:35:17;37.23;;;14.43;;
17618;SDS011;8928;51.678;6.074;2023-02-08T06:38:04;36.97;;;14.67;;
17618;SDS011;8928;51.678;6.074;2023-02-08T06:40:51;38.83;;;14.60;;
17618;SDS011;8928;51.678;6.074;2023-02-08T06:43:38;39.10;;;14.80;;
17618;SDS011;8928;51.678;6.074;2023-02-08T06:46:27;34.57;;;15.03;;
17618;SDS011;8928;51.678;6.074;2023-02-08T06:49:14;41.57;;;16.50;;
17618;SDS011;8928;51.678;6.074;2023-02-08T06:52:01;43.37;;;17.80;;
17618;SDS011;8928;51.678;6.074;2023-02-08T06:54:48;43.00;;;17.80;;
17618;SDS011;8928;51.678;6.074;2023-02-08T06:57:35;44.63;;;17.43;;
17618;SDS011;8928;51.678;6.074;2023-02-08T07:00:23;40.73;;;16.80;;
17618;SDS011;8928;51.678;6.074;2023-02-08T07:03:11;38.67;;;15.70;;
17618;SDS011;8928;51.678;6.074;2023-02-08T07:05:59;36.83;;;15.17;;
17618;SDS011;8928;51.678;6.074;2023-02-08T07:08:46;38.63;;;14.93;;
17618;SDS011;8928;51.678;6.074;2023-02-08T07:11:33;37.33;;;15.27;;
17618;SDS011;8928;51.678;6.074;2023-02-08T07:14:20;33.63;;;15.23;;
17618;SDS011;8928;51.678;6.074;2023-02-08T07:17:07;35.60;;;15.60;;
17618;SDS011;8928;51.678;6.074;2023-02-08T07:19:57;35.20;;;15.63;;
17618;SDS011;8928;51.678;6.074;2023-02-08T07:22:44;40.37;;;15.87;;
17618;SDS011;8928;51.678;6.074;2023-02-08T07:25:31;41.73;;;16.87;;
17618;SDS011;8928;51.678;6.074;2023-02-08T07:28:18;42.20;;;17.37;;
17618;SDS011;8928;51.678;6.074;2023-02-08T07:31:05;47.53;;;19.43;;
17618;SDS011;8928;51.678;6.074;2023-02-08T07:33:53;47.87;;;19.47;;
17618;SDS011;8928;51.678;6.074;2023-02-08T07:36:41;44.47;;;18.33;;
17618;SDS011;8928;51.678;6.074;2023-02-08T07:39:28;40.83;;;17.27;;
17618;SDS011;8928;51.678;6.074;2023-02-08T07:42:15;44.97;;;17.83;;
17618;SDS011;8928;51.678;6.074;2023-02-08T07:45:03;45.87;;;17.87;;
17618;SDS011;8928;51.678;6.074;2023-02-08T07:47:50;37.80;;;16.70;;
17618;SDS011;8928;51.678;6.074;2023-02-08T07:50:37;44.03;;;16.57;;
17618;SDS011;8928;51.678;6.074;2023-02-08T07:53:25;35.77;;;16.47;;
17618;SDS011;8928;51.678;6.074;2023-02-08T07:56:12;41.50;;;15.97;;
17618;SDS011;8928;51.678;6.074;2023-02-08T07:58:59;37.43;;;16.03;;
17618;SDS011;8928;51.678;6.074;2023-02-08T08:01:46;38.07;;;15.73;;
17618;SDS011;8928;51.678;6.074;2023-02-08T08:04:34;36.70;;;15.43;;
17618;SDS011;8928;51.678;6.074;2023-02-08T08:07:21;40.63;;;16.33;;
17618;SDS011;8928;51.678;6.074;2023-02-08T08:10:09;39.57;;;17.20;;
17618;SDS011;8928;51.678;6.074;2023-02-08T08:12:56;42.33;;;17.07;;
17618;SDS011;8928;51.678;6.074;2023-02-08T08:15:43;39.37;;;16.80;;
17618;SDS011;8928;51.678;6.074;2023-02-08T08:18:30;36.57;;;15.50;;
17618;SDS011;8928;51.678;6.074;2023-02-08T08:21:17;35.60;;;15.10;;
17618;SDS011;8928;51.678;6.074;2023-02-08T08:24:04;36.47;;;15.43;;
17618;SDS011;8928;51.678;6.074;2023-02-08T08:26:53;37.83;;;14.73;;
17618;SDS011;8928;51.678;6.074;2023-02-08T08:29:40;35.40;;;14.40;;
17618;SDS011;8928;51.678;6.074;2023-02-08T08:32:27;34.63;;;13.97;;
17618;SDS011;8928;51.678;6.074;2023-02-08T08:35:14;33.27;;;13.53;;
17618;SDS011;8928;51.678;6.074;2023-02-08T08:38:01;28.53;;;13.03;;
17618;SDS011;8928;51.678;6.074;2023-02-08T08:40:48;28.33;;;12.53;;
17618;SDS011;8928;51.678;6.074;2023-02-08T08:43:36;25.27;;;11.90;;
17618;SDS011;8928;51.678;6.074;2023-02-08T08:46:23;31.17;;;11.67;;
17618;SDS011;8928;51.678;6.074;2023-02-08T08:49:10;29.40;;;11.33;;
17618;SDS011;8928;51.678;6.074;2023-02-08T08:51:57;27.17;;;11.60;;
17618;SDS011;8928;51.678;6.074;2023-02-08T08:54:45;22.73;;;10.63;;
17618;SDS011;8928;51.678;6.074;2023-02-08T08:57:32;22.90;;;10.47;;
17618;SDS011;8928;51.678;6.074;2023-02-08T09:00:20;21.27;;;10.03;;
17618;SDS011;8928;51.678;6.074;2023-02-08T09:03:07;22.77;;;9.90;;
17618;SDS011;8928;51.678;6.074;2023-02-08T09:05:54;24.27;;;10.03;;
17618;SDS011;8928;51.678;6.074;2023-02-08T09:08:41;21.23;;;9.90;;
17618;SDS011;8928;51.678;6.074;2023-02-08T09:11:29;20.57;;;9.63;;
17618;SDS011;8928;51.678;6.074;2023-02-08T09:14:17;22.27;;;9.20;;
17618;SDS011;8928;51.678;6.074;2023-02-08T09:17:05;18.37;;;9.03;;
17618;SDS011;8928;51.678;6.074;2023-02-08T09:19:52;22.80;;;10.00;;
17618;SDS011;8928;51.678;6.074;2023-02-08T09:22:39;19.23;;;9.40;;
17618;SDS011;8928;51.678;6.074;2023-02-08T09:25:27;20.47;;;9.07;;
17618;SDS011;8928;51.678;6.074;2023-02-08T09:28:13;19.90;;;9.13;;
17618;SDS011;8928;51.678;6.074;2023-02-08T09:31:05;19.17;;;9.40;;
17618;SDS011;8928;51.678;6.074;2023-02-08T09:33:55;20.00;;;9.07;;
17618;SDS011;8928;51.678;6.074;2023-02-08T09:36:44;18.93;;;8.90;;
17618;SDS011;8928;51.678;6.074;2023-02-08T09:39:31;20.73;;;8.93;;
17618;SDS011;8928;51.678;6.074;2023-02-08T09:42:22;19.03;;;9.07;;
17618;SDS011;8928;51.678;6.074;2023-02-08T09:45:19;20.37;;;9.03;;
17618;SDS011;8928;51.678;6.074;2023-02-08T09:48:16;16.33;;;8.10;;
17618;SDS011;8928;51.678;6.074;2023-02-08T09:51:09;21.57;;;8.63;;
17618;SDS011;8928;51.678;6.074;2023-02-08T09:54:07;22.17;;;8.47;;
17618;SDS011;8928;51.678;6.074;2023-02-08T09:57:03;18.33;;;7.93;;
17618;SDS011;8928;51.678;6.074;2023-02-08T09:59:53;19.83;;;8.13;;
17618;SDS011;8928;51.678;6.074;2023-02-08T10:02:43;18.70;;;8.37;;
17618;SDS011;8928;51.678;6.074;2023-02-08T10:05:33;19.83;;;8.20;;
17618;SDS011;8928;51.678;6.074;2023-02-08T10:08:21;17.10;;;7.93;;
17618;SDS011;8928;51.678;6.074;2023-02-08T10:11:16;16.63;;;7.90;;
17618;SDS011;8928;51.678;6.074;2023-02-08T10:14:32;19.10;;;8.17;;
17618;SDS011;8928;51.678;6.074;2023-02-08T10:17:38;17.53;;;7.97;;
17618;SDS011;8928;51.678;6.074;2023-02-08T10:20:39;20.23;;;8.23;;
17618;SDS011;8928;51.678;6.074;2023-02-08T10:23:42;20.37;;;7.83;;
17618;SDS011;8928;51.678;6.074;2023-02-08T10:26:45;17.17;;;8.47;;
17618;SDS011;8928;51.678;6.074;2023-02-08T10:29:47;15.20;;;7.63;;
17618;SDS011;8928;51.678;6.074;2023-02-08T10:32:53;19.50;;;8.40;;
17618;SDS011;8928;51.678;6.074;2023-02-08T10:35:46;18.00;;;8.10;;
17618;SDS011;8928;51.678;6.074;2023-02-08T10:41:04;19.73;;;7.97;;
17618;SDS011;8928;51.678;6.074;2023-02-08T10:43:54;18.73;;;8.00;;
17618;SDS011;8928;51.678;6.074;2023-02-08T10:46:48;20.30;;;8.07;;
17618;SDS011;8928;51.678;6.074;2023-02-08T10:49:41;19.13;;;8.27;;
17618;SDS011;8928;51.678;6.074;2023-02-08T10:52:34;15.80;;;7.60;;
17618;SDS011;8928;51.678;6.074;2023-02-08T10:55:21;18.07;;;7.90;;
17618;SDS011;8928;51.678;6.074;2023-02-08T10:58:12;19.90;;;7.77;;
17618;SDS011;8928;51.678;6.074;2023-02-08T11:01:01;16.73;;;7.13;;
17618;SDS011;8928;51.678;6.074;2023-02-08T11:04:02;17.20;;;7.30;;
17618;SDS011;8928;51.678;6.074;2023-02-08T11:06:50;14.50;;;7.37;;
17618;SDS011;8928;51.678;6.074;2023-02-08T11:09:38;15.07;;;7.33;;
17618;SDS011;8928;51.678;6.074;2023-02-08T11:12:25;15.50;;;7.10;;
17618;SDS011;8928;51.678;6.074;2023-02-08T11:15:21;14.53;;;7.00;;
17618;SDS011;8928;51.678;6.074;2023-02-08T11:18:14;13.70;;;6.90;;
17618;SDS011;8928;51.678;6.074;2023-02-08T11:21:06;16.10;;;6.83;;
17618;SDS011;8928;51.678;6.074;2023-02-08T11:23:56;14.63;;;6.97;;
17618;SDS011;8928;51.678;6.074;2023-02-08T11:26:43;14.57;;;6.40;;
17618;SDS011;8928;51.678;6.074;2023-02-08T11:29:30;11.73;;;6.17;;
17618;SDS011;8928;51.678;6.074;2023-02-08T11:32:19;12.97;;;5.93;;
17618;SDS011;8928;51.678;6.074;2023-02-08T11:35:10;13.00;;;6.20;;
17618;SDS011;8928;51.678;6.074;2023-02-08T11:37:58;14.90;;;6.27;;
17618;SDS011;8928;51.678;6.074;2023-02-08T11:40:45;13.50;;;6.00;;
17618;SDS011;8928;51.678;6.074;2023-02-08T11:43:33;16.00;;;6.13;;
17618;SDS011;8928;51.678;6.074;2023-02-08T11:46:21;16.47;;;6.70;;
17618;SDS011;8928;51.678;6.074;2023-02-08T11:49:15;14.90;;;7.20;;
17618;SDS011;8928;51.678;6.074;2023-02-08T11:52:17;14.87;;;6.50;;
17618;SDS011;8928;51.678;6.074;2023-02-08T11:55:18;14.80;;;6.70;;
17618;SDS011;8928;51.678;6.074;2023-02-08T11:58:16;14.80;;;6.27;;
17618;SDS011;8928;51.678;6.074;2023-02-08T12:01:16;11.83;;;5.80;;
17618;SDS011;8928;51.678;6.074;2023-02-08T12:04:05;16.30;;;6.13;;
17618;SDS011;8928;51.678;6.074;2023-02-08T12:17:07;11.70;;;5.67;;
17618;SDS011;8928;51.678;6.074;2023-02-08T12:20:11;11.23;;;5.90;;
17618;SDS011;8928;51.678;6.074;2023-02-08T12:23:30;13.97;;;6.47;;
17618;SDS011;8928;51.678;6.074;2023-02-08T12:26:47;14.23;;;6.20;;
17618;SDS011;8928;51.678;6.074;2023-02-08T12:29:47;13.73;;;5.90;;
17618;SDS011;8928;51.678;6.074;2023-02-08T12:32:50;14.73;;;5.60;;
17618;SDS011;8928;51.678;6.074;2023-02-08T12:35:57;12.60;;;5.63;;
17618;SDS011;8928;51.678;6.074;2023-02-08T12:39:01;12.93;;;6.17;;
17618;SDS011;8928;51.678;6.074;2023-02-08T12:42:13;14.07;;;5.90;;
17618;SDS011;8928;51.678;6.074;2023-02-08T12:45:14;12.93;;;6.17;;
17618;SDS011;8928;51.678;6.074;2023-02-08T12:48:20;10.10;;;5.00;;
17618;SDS011;8928;51.678;6.074;2023-02-08T12:51:19;10.57;;;4.83;;
17618;SDS011;8928;51.678;6.074;2023-02-08T12:54:17;8.63;;;4.60;;
17618;SDS011;8928;51.678;6.074;2023-02-08T12:57:18;10.93;;;5.03;;
17618;SDS011;8928;51.678;6.074;2023-02-08T13:00:14;8.37;;;4.03;;
17618;SDS011;8928;51.678;6.074;2023-02-08T13:03:05;9.33;;;4.40;;
17618;SDS011;8928;51.678;6.074;2023-02-08T13:06:04;8.50;;;4.43;;
17618;SDS011;8928;51.678;6.074;2023-02-08T13:08:54;7.37;;;4.10;;
17618;SDS011;8928;51.678;6.074;2023-02-08T13:11:49;9.63;;;4.30;;
17618;SDS011;8928;51.678;6.074;2023-02-08T13:14:42;7.77;;;3.73;;
17618;SDS011;8928;51.678;6.074;2023-02-08T13:17:35;7.70;;;4.10;;
17618;SDS011;8928;51.678;6.074;2023-02-08T13:20:32;9.17;;;4.40;;
17618;SDS011;8928;51.678;6.074;2023-02-08T13:23:27;9.73;;;4.17;;
17618;SDS011;8928;51.678;6.074;2023-02-08T13:26:17;8.07;;;3.87;;
17618;SDS011;8928;51.678;6.074;2023-02-08T13:29:14;9.13;;;3.93;;
17618;SDS011;8928;51.678;6.074;2023-02-08T13:32:04;8.27;;;3.70;;
17618;SDS011;8928;51.678;6.074;2023-02-08T13:34:57;7.70;;;3.67;;
17618;SDS011;8928;51.678;6.074;2023-02-08T13:37:50;8.30;;;3.47;;
17618;SDS011;8928;51.678;6.074;2023-02-08T13:40:47;6.37;;;3.00;;
17618;SDS011;8928;51.678;6.074;2023-02-08T13:43:49;6.03;;;2.63;;
17618;SDS011;8928;51.678;6.074;2023-02-08T13:46:44;6.60;;;2.80;;
17618;SDS011;8928;51.678;6.074;2023-02-08T13:49:44;5.10;;;2.67;;
17618;SDS011;8928;51.678;6.074;2023-02-08T13:52:46;6.73;;;2.90;;
17618;SDS011;8928;51.678;6.074;2023-02-08T13:55:39;8.13;;;3.20;;
17618;SDS011;8928;51.678;6.074;2023-02-08T14:08:21;5.70;;;2.83;;
17618;SDS011;8928;51.678;6.074;2023-02-08T14:11:15;5.17;;;2.70;;
17618;SDS011;8928;51.678;6.074;2023-02-08T14:14:12;5.07;;;3.13;;
17618;SDS011;8928;51.678;6.074;2023-02-08T14:17:07;7.13;;;3.30;;
17618;SDS011;8928;51.678;6.074;2023-02-08T14:19:57;6.80;;;3.37;;
17618;SDS011;8928;51.678;6.074;2023-02-08T14:22:49;5.77;;;3.30;;
17618;SDS011;8928;51.678;6.074;2023-02-08T14:25:39;6.27;;;3.40;;
17618;SDS011;8928;51.678;6.074;2023-02-08T14:28:29;6.40;;;3.40;;
17618;SDS011;8928;51.678;6.074;2023-02-08T14:31:19;6.30;;;3.10;;
17618;SDS011;8928;51.678;6.074;2023-02-08T14:34:21;5.13;;;3.00;;
17618;SDS011;8928;51.678;6.074;2023-02-08T14:37:25;4.97;;;2.90;;
17618;SDS011;8928;51.678;6.074;2023-02-08T14:40:45;4.45;;;2.80;;
17618;SDS011;8928;51.678;6.074;2023-02-08T14:43:35;5.22;;;2.80;;
17618;SDS011;8928;51.678;6.074;2023-02-08T14:49:38;5.90;;;2.97;;
17618;SDS011;8928;51.678;6.074;2023-02-08T14:52:27;6.82;;;3.55;;
17618;SDS011;8928;51.678;6.074;2023-02-08T14:55:16;6.47;;;3.00;;
17618;SDS011;8928;51.678;6.074;2023-02-08T14:58:13;5.78;;;3.08;;
17618;SDS011;8928;51.678;6.074;2023-02-08T15:01:06;6.35;;;3.00;;
17618;SDS011;8928;51.678;6.074;2023-02-08T15:03:59;5.53;;;3.20;;
17618;SDS011;8928;51.678;6.074;2023-02-08T15:07:03;5.53;;;3.43;;
17618;SDS011;8928;51.678;6.074;2023-02-08T15:10:03;7.93;;;3.40;;
17618;SDS011;8928;51.678;6.074;2023-02-08T15:12:52;4.97;;;3.10;;
17618;SDS011;8928;51.678;6.074;2023-02-08T15:15:43;7.13;;;3.40;;
17618;SDS011;8928;51.678;6.074;2023-02-08T15:18:32;6.17;;;3.30;;
17618;SDS011;8928;51.678;6.074;2023-02-08T15:21:20;7.50;;;3.40;;
17618;SDS011;8928;51.678;6.074;2023-02-08T15:24:12;6.63;;;3.23;;
17618;SDS011;8928;51.678;6.074;2023-02-08T15:27:00;7.30;;;3.60;;
17618;SDS011;8928;51.678;6.074;2023-02-08T15:29:48;7.47;;;3.60;;
17618;SDS011;8928;51.678;6.074;2023-02-08T15:32:37;8.73;;;3.60;;
17618;SDS011;8928;51.678;6.074;2023-02-08T15:35:26;8.47;;;3.40;;
17618;SDS011;8928;51.678;6.074;2023-02-08T15:38:17;6.17;;;3.50;;
17618;SDS011;8928;51.678;6.074;2023-02-08T15:41:08;6.60;;;3.10;;
17618;SDS011;8928;51.678;6.074;2023-02-08T15:44:00;8.17;;;3.40;;
17618;SDS011;8928;51.678;6.074;2023-02-08T15:46:58;6.90;;;3.33;;
17618;SDS011;8928;51.678;6.074;2023-02-08T15:49:49;8.40;;;3.40;;
17618;SDS011;8928;51.678;6.074;2023-02-08T15:52:39;7.40;;;3.20;;
17618;SDS011;8928;51.678;6.074;2023-02-08T15:55:28;10.27;;;3.30;;
17618;SDS011;8928;51.678;6.074;2023-02-08T15:58:18;8.37;;;3.50;;
17618;SDS011;8928;51.678;6.074;2023-02-08T16:01:15;10.10;;;3.43;;
17618;SDS011;8928;51.678;6.074;2023-02-08T16:04:04;8.67;;;3.27;;
17618;SDS011;8928;51.678;6.074;2023-02-08T16:06:57;6.97;;;3.23;;
17618;SDS011;8928;51.678;6.074;2023-02-08T16:09:45;6.73;;;2.90;;
17618;SDS011;8928;51.678;6.074;2023-02-08T16:12:32;12.27;;;3.50;;
17618;SDS011;8928;51.678;6.074;2023-02-08T16:15:40;6.70;;;3.00;;
17618;SDS011;8928;51.678;6.074;2023-02-08T16:18:30;8.13;;;3.00;;
17618;SDS011;8928;51.678;6.074;2023-02-08T16:21:24;7.93;;;3.17;;
17618;SDS011;8928;51.678;6.074;2023-02-08T16:24:22;9.83;;;3.23;;
17618;SDS011;8928;51.678;6.074;2023-02-08T16:27:14;6.37;;;3.17;;
17618;SDS011;8928;51.678;6.074;2023-02-08T16:30:13;11.30;;;3.13;;
17618;SDS011;8928;51.678;6.074;2023-02-08T16:33:07;9.60;;;3.30;;
17618;SDS011;8928;51.678;6.074;2023-02-08T16:35:54;6.20;;;3.00;;
17618;SDS011;8928;51.678;6.074;2023-02-08T16:38:47;7.90;;;3.50;;
17618;SDS011;8928;51.678;6.074;2023-02-08T16:41:48;7.03;;;3.30;;
17618;SDS011;8928;51.678;6.074;2023-02-08T16:44:56;10.40;;;3.33;;
17618;SDS011;8928;51.678;6.074;2023-02-08T16:47:46;6.03;;;3.13;;
17618;SDS011;8928;51.678;6.074;2023-02-08T16:50:36;7.83;;;3.13;;
17618;SDS011;8928;51.678;6.074;2023-02-08T16:53:23;7.80;;;3.53;;
17618;SDS011;8928;51.678;6.074;2023-02-08T16:56:13;7.57;;;3.60;;
17618;SDS011;8928;51.678;6.074;2023-02-08T16:59:02;8.13;;;3.60;;
17618;SDS011;8928;51.678;6.074;2023-02-08T17:01:49;9.47;;;3.63;;
17618;SDS011;8928;51.678;6.074;2023-02-08T17:04:36;10.27;;;3.70;;
17618;SDS011;8928;51.678;6.074;2023-02-08T17:07:23;6.60;;;3.60;;
17618;SDS011;8928;51.678;6.074;2023-02-08T17:10:15;8.87;;;3.33;;
17618;SDS011;8928;51.678;6.074;2023-02-08T17:13:05;8.53;;;3.70;;
17618;SDS011;8928;51.678;6.074;2023-02-08T17:15:53;8.70;;;3.90;;
17618;SDS011;8928;51.678;6.074;2023-02-08T17:18:41;8.13;;;3.73;;
17618;SDS011;8928;51.678;6.074;2023-02-08T17:21:28;10.80;;;3.73;;
17618;SDS011;8928;51.678;6.074;2023-02-08T17:24:16;9.93;;;4.40;;
17618;SDS011;8928;51.678;6.074;2023-02-08T17:27:03;9.33;;;4.07;;
17618;SDS011;8928;51.678;6.074;2023-02-08T17:29:50;11.73;;;4.47;;
17618;SDS011;8928;51.678;6.074;2023-02-08T17:32:38;10.23;;;4.60;;
17618;SDS011;8928;51.678;6.074;2023-02-08T17:35:26;8.27;;;4.40;;